Time;durP1;ratioP1;P1;durP2;ratioP2;P2;SDS_P1;SDS_P2;PMS_P1;PMS_P2;Temp;Humidity;BMP_temperature;BMP_pressure;BME280_temperature;BME280_humidity;BME280_pressure;Samples;Min_cycle;Max_cycle;Signal;HPM_P1;HPM_P2
2023/09/01 00:01:41;;;;;;;15.35;9.75;;;12.00;99.90;;;;;;5078628;28;20039;-85
2023/09/01 00:04:30;;;;;;;22.25;10.65;;;11.90;99.90;;;;;;5082047;28;20031;-85
2023/09/01 00:06:56;;;;;;;23.05;11.35;;;11.90;99.90;;;;;;5078513;28;20028;-85
2023/09/01 00:09:21;;;;;;;20.40;12.40;;;11.90;99.90;;;;;;5078372;28;20032;-85
2023/09/01 00:11:56;;;;;;;28.42;12.82;;;11.90;99.90;;;;;;5078590;28;20016;-85
2023/09/01 00:14:22;;;;;;;20.67;12.75;;;11.80;99.90;;;;;;5078413;28;20036;-85
2023/09/01 00:16:47;;;;;;;40.85;12.88;;;11.80;99.90;;;;;;5076772;28;20877;-85
2023/09/01 00:19:13;;;;;;;81.28;13.65;;;11.90;99.90;;;;;;5060663;28;20043;-84
2023/09/01 00:21:39;;;;;;;39.22;11.63;;;11.90;99.90;;;;;;5077340;28;20024;-84
2023/09/01 00:24:06;;;;;;;89.68;11.65;;;11.90;99.90;;;;;;5076782;28;20379;-84
2023/09/01 00:26:31;;;;;;;96.35;10.88;;;11.90;99.90;;;;;;5076721;28;20922;-83
2023/09/01 00:28:57;;;;;;;122.70;13.18;;;11.80;99.90;;;;;;5076546;28;20032;-84
2023/09/01 00:31:23;;;;;;;107.68;11.52;;;11.80;99.90;;;;;;5076261;28;20078;-84
2023/09/01 00:33:48;;;;;;;39.53;8.98;;;11.80;99.90;;;;;;5076848;28;20032;-83
2023/09/01 00:36:14;;;;;;;23.20;8.80;;;11.80;99.90;;;;;;5077078;28;20441;-84
2023/09/01 00:39:11;;;;;;;18.00;9.65;;;11.80;99.90;;;;;;5076913;28;20043;-83
2023/09/01 00:41:37;;;;;;;14.45;9.70;;;11.80;99.90;;;;;;5076049;28;20502;-83
2023/09/01 00:44:04;;;;;;;31.63;11.23;;;11.80;99.90;;;;;;5077003;28;20024;-83
2023/09/01 00:46:31;;;;;;;101.20;14.85;;;11.80;99.90;;;;;;5076858;28;20028;-83
2023/09/01 00:48:58;;;;;;;118.38;15.23;;;11.90;99.90;;;;;;5060143;28;20127;-83
2023/09/01 00:51:28;;;;;;;277.90;22.98;;;11.80;99.90;;;;;;5060558;28;20032;-83
2023/09/01 00:53:54;;;;;;;41.17;12.13;;;11.90;99.90;;;;;;5076592;28;20047;-83
2023/09/01 00:56:20;;;;;;;40.70;12.40;;;11.90;99.90;;;;;;5060489;28;20032;-83
2023/09/01 00:58:45;;;;;;;41.50;12.57;;;11.90;99.90;;;;;;5076384;28;20024;-83
2023/09/01 01:01:11;;;;;;;23.02;11.10;;;11.90;99.90;;;;;;5076522;28;20168;-83
2023/09/01 01:03:38;;;;;;;60.35;13.95;;;12.00;99.90;;;;;;5076640;28;20062;-83
2023/09/01 01:06:17;;;;;;;49.05;13.68;;;12.00;99.90;;;;;;5076214;28;20032;-83
2023/09/01 01:09:01;;;;;;;123.82;15.57;;;12.00;99.90;;;;;;5076347;28;20399;-83
2023/09/01 01:11:34;;;;;;;47.15;9.85;;;12.00;99.90;;;;;;5076260;28;20795;-83
2023/09/01 01:14:47;;;;;;;25.63;8.95;;;12.10;99.90;;;;;;5076441;28;20089;-83
2023/09/01 01:17:18;;;;;;;19.35;8.27;;;12.10;99.90;;;;;;5059448;28;20505;-82
2023/09/01 01:20:13;;;;;;;31.92;8.35;;;12.10;99.90;;;;;;5076207;28;20404;-83
2023/09/01 01:22:59;;;;;;;144.68;12.80;;;12.10;99.90;;;;;;5076194;28;20032;-83
2023/09/01 01:25:25;;;;;;;130.27;12.65;;;12.20;99.90;;;;;;5076168;28;20479;-83
2023/09/01 01:27:50;;;;;;;210.55;17.50;;;12.20;99.90;;;;;;5076061;28;20026;-83
2023/09/01 01:30:16;;;;;;;152.45;14.15;;;12.10;99.90;;;;;;5075925;28;20028;-82
2023/09/01 01:32:43;;;;;;;70.35;8.98;;;12.20;99.90;;;;;;5075852;28;20035;-83
2023/09/01 01:35:57;;;;;;;42.58;7.57;;;12.20;99.90;;;;;;5075908;28;20364;-82
2023/09/01 01:38:25;;;;;;;19.67;5.70;;;12.20;99.90;;;;;;5062476;28;20051;-82
2023/09/01 01:40:55;;;;;;;8.73;4.32;;;12.20;99.90;;;;;;5074841;28;20576;-82
2023/09/01 01:43:23;;;;;;;10.18;5.03;;;12.20;99.90;;;;;;5075473;28;20395;-81
2023/09/01 01:45:49;;;;;;;12.95;3.92;;;12.20;99.90;;;;;;5075390;28;20024;-82
2023/09/01 01:48:15;;;;;;;12.90;3.70;;;12.20;99.90;;;;;;5075257;28;20028;-82
2023/09/01 01:50:41;;;;;;;6.38;2.92;;;12.20;99.90;;;;;;5074977;28;20493;-82
2023/09/01 01:53:07;;;;;;;5.45;3.17;;;12.30;99.90;;;;;;5075135;28;20023;-83
2023/09/01 01:55:52;;;;;;;6.57;2.85;;;12.30;99.90;;;;;;5076070;28;20035;-83
2023/09/01 01:58:17;;;;;;;4.10;2.60;;;12.30;99.90;;;;;;5075889;28;20036;-83
2023/09/01 02:00:43;;;;;;;3.70;2.63;;;12.30;99.90;;;;;;5075103;28;20035;-83
2023/09/01 02:03:09;;;;;;;4.60;2.78;;;12.30;99.90;;;;;;5075552;28;20035;-83
2023/09/01 02:05:34;;;;;;;3.60;2.97;;;12.30;99.90;;;;;;5075486;28;20031;-83
2023/09/01 02:08:00;;;;;;;5.15;3.25;;;12.40;99.90;;;;;;5075341;28;20119;-83
2023/09/01 02:10:27;;;;;;;4.85;3.30;;;12.40;99.90;;;;;;5075178;28;20498;-83
2023/09/01 02:12:53;;;;;;;7.25;3.38;;;12.30;99.90;;;;;;5075431;28;20024;-83
2023/09/01 02:15:49;;;;;;;6.43;3.15;;;12.30;99.90;;;;;;5075539;28;20054;-83
2023/09/01 02:19:11;;;;;;;9.40;3.83;;;12.30;99.90;;;;;;5075425;28;20146;-83
2023/09/01 02:21:37;;;;;;;7.90;4.10;;;12.40;99.90;;;;;;5075128;28;20035;-83
2023/09/01 02:24:05;;;;;;;7.70;4.68;;;12.40;99.90;;;;;;5075374;28;20067;-83
2023/09/01 02:26:31;;;;;;;9.07;4.60;;;12.40;99.90;;;;;;5074866;28;20054;-82
2023/09/01 02:28:57;;;;;;;7.00;4.45;;;12.40;99.90;;;;;;5074917;28;20032;-83
2023/09/01 02:31:24;;;;;;;9.75;6.20;;;12.40;99.90;;;;;;5074811;28;20093;-83
2023/09/01 02:33:50;;;;;;;13.95;6.75;;;12.50;99.90;;;;;;5074989;28;20491;-82
2023/09/01 02:36:30;;;;;;;12.57;7.35;;;12.40;99.90;;;;;;5074860;28;20066;-83
2023/09/01 02:38:57;;;;;;;14.55;7.63;;;12.40;99.90;;;;;;5074660;28;20054;-83
2023/09/01 02:41:24;;;;;;;15.20;8.55;;;12.40;99.90;;;;;;5074790;28;20028;-83
2023/09/01 02:43:50;;;;;;;24.98;9.43;;;12.40;99.90;;;;;;5091560;28;20058;-84
2023/09/01 02:46:16;;;;;;;31.67;9.77;;;12.50;99.90;;;;;;5075187;28;20390;-83
2023/09/01 02:48:41;;;;;;;46.00;11.57;;;12.50;99.90;;;;;;5075030;28;20035;-83
2023/09/01 02:51:07;;;;;;;118.15;15.95;;;12.50;99.90;;;;;;5074492;28;20020;-83
2023/09/01 02:53:37;;;;;;;191.13;21.35;;;12.50;99.90;;;;;;5074373;28;20031;-83
2023/09/01 02:56:03;;;;;;;316.20;26.55;;;12.50;99.90;;;;;;5074844;28;20048;-84
2023/09/01 02:58:29;;;;;;;228.85;23.35;;;12.50;99.90;;;;;;5075483;28;20078;-84
2023/09/01 03:00:55;;;;;;;411.90;30.83;;;12.50;99.90;;;;;;5075414;28;20483;-83
2023/09/01 03:03:22;;;;;;;805.03;50.00;;;12.50;99.90;;;;;;5074353;28;20036;-83
2023/09/01 03:05:49;;;;;;;609.03;41.60;;;12.50;99.90;;;;;;5075421;28;20055;-83
2023/09/01 03:08:20;;;;;;;598.92;40.03;;;12.50;99.90;;;;;;5075329;28;20024;-84
2023/09/01 03:10:47;;;;;;;277.75;25.75;;;12.50;99.90;;;;;;5075040;28;20470;-83
2023/09/01 03:13:12;;;;;;;365.50;32.05;;;12.60;99.90;;;;;;5074347;28;20609;-83
2023/09/01 03:15:40;;;;;;;201.05;22.73;;;12.60;99.90;;;;;;5074184;28;20054;-83
2023/09/01 03:18:06;;;;;;;378.50;29.23;;;12.70;99.90;;;;;;5074446;28;20055;-83
2023/09/01 03:20:34;;;;;;;339.23;30.52;;;12.70;99.90;;;;;;5074470;28;20071;-83
2023/09/01 03:23:00;;;;;;;56.63;16.60;;;12.70;99.90;;;;;;5074241;28;20053;-83
2023/09/01 03:25:27;;;;;;;241.50;26.75;;;12.70;99.90;;;;;;5074522;28;20074;-83
2023/09/01 03:27:53;;;;;;;253.88;25.77;;;12.70;99.90;;;;;;5074908;28;20028;-84
2023/09/01 03:30:34;;;;;;;513.38;40.95;;;12.70;99.90;;;;;;5074820;28;20490;-84
2023/09/01 03:33:00;;;;;;;472.52;42.70;;;12.70;99.90;;;;;;5074906;28;20031;-84
2023/09/01 03:35:26;;;;;;;514.03;47.33;;;12.80;99.90;;;;;;5075521;28;20036;-83
2023/09/01 03:37:52;;;;;;;268.20;35.42;;;12.80;99.90;;;;;;5074989;28;20031;-83
2023/09/01 03:40:18;;;;;;;380.23;41.08;;;12.80;99.90;;;;;;5058541;28;20035;-83
2023/09/01 03:42:44;;;;;;;193.13;32.05;;;12.80;99.90;;;;;;5074591;28;20640;-84
2023/09/01 03:45:11;;;;;;;62.53;28.70;;;12.90;99.90;;;;;;5074022;28;20039;-83
2023/09/01 03:47:36;;;;;;;55.63;27.17;;;12.90;99.90;;;;;;5074047;28;20032;-84
2023/09/01 03:50:03;;;;;;;63.42;30.90;;;12.90;99.90;;;;;;5074409;28;20447;-84
2023/09/01 03:52:29;;;;;;;76.90;35.28;;;13.00;99.90;;;;;;5057626;28;20119;-84
2023/09/01 03:54:55;;;;;;;111.35;42.90;;;13.00;99.90;;;;;;5074090;28;20103;-84
2023/09/01 03:57:25;;;;;;;95.00;43.30;;;13.10;99.90;;;;;;5074137;28;20062;-84
2023/09/01 03:59:51;;;;;;;110.90;47.45;;;13.10;99.90;;;;;;5074060;28;20035;-84
2023/09/01 04:02:16;;;;;;;123.03;51.58;;;13.10;99.90;;;;;;5074375;28;20075;-84
2023/09/01 04:04:42;;;;;;;136.88;55.55;;;13.10;99.90;;;;;;5074185;28;20471;-84
2023/09/01 04:07:09;;;;;;;164.63;59.05;;;13.20;99.90;;;;;;5074056;28;20066;-84
2023/09/01 04:09:35;;;;;;;157.13;61.97;;;13.10;99.90;;;;;;5073907;28;20036;-83
2023/09/01 04:12:01;;;;;;;149.40;59.95;;;13.20;99.90;;;;;;5074143;28;20028;-84
2023/09/01 04:14:29;;;;;;;165.43;65.25;;;13.20;99.90;;;;;;5074643;28;20872;-84
2023/09/01 04:16:55;;;;;;;164.30;64.30;;;13.20;99.90;;;;;;5077512;28;20020;-83
2023/09/01 04:19:20;;;;;;;332.42;73.18;;;13.20;99.90;;;;;;5076963;28;20035;-84
2023/09/01 04:21:47;;;;;;;186.85;63.88;;;13.20;99.90;;;;;;5076527;28;20798;-83
2023/09/01 04:24:12;;;;;;;203.98;60.33;;;13.20;99.90;;;;;;5077271;28;20039;-84
2023/09/01 04:26:38;;;;;;;262.42;61.30;;;13.30;99.90;;;;;;5076932;28;20065;-84
2023/09/01 04:29:04;;;;;;;196.70;60.67;;;13.30;99.90;;;;;;5077579;28;20039;-84
2023/09/01 04:31:58;;;;;;;202.30;57.22;;;13.30;99.90;;;;;;5077303;28;20020;-83
2023/09/01 04:34:24;;;;;;;187.02;53.78;;;13.30;99.90;;;;;;5077462;28;20055;-83
2023/09/01 04:36:50;;;;;;;440.48;66.10;;;13.30;99.90;;;;;;5077222;28;20032;-84
2023/09/01 04:39:17;;;;;;;285.63;55.25;;;13.40;99.90;;;;;;5076411;28;20032;-83
2023/09/01 04:41:43;;;;;;;301.10;56.05;;;13.30;99.90;;;;;;5077456;28;20032;-86
2023/09/01 04:44:10;;;;;;;188.68;49.22;;;13.40;99.90;;;;;;5078456;28;20797;-85
2023/09/01 04:46:36;;;;;;;152.07;44.30;;;13.40;99.90;;;;;;5078126;28;20032;-84
2023/09/01 04:49:02;;;;;;;121.55;41.00;;;13.40;99.90;;;;;;5077904;28;20032;-84
2023/09/01 04:51:27;;;;;;;91.32;36.47;;;13.50;99.90;;;;;;5060929;28;20052;-85
2023/09/01 04:53:53;;;;;;;41.53;22.50;;;13.50;99.90;;;;;;5077274;28;20020;-84
2023/09/01 04:56:20;;;;;;;43.40;22.13;;;13.50;99.90;;;;;;5077334;28;20103;-85
2023/09/01 04:58:46;;;;;;;48.58;21.83;;;13.50;99.90;;;;;;5077275;28;20036;-85
2023/09/01 05:01:11;;;;;;;44.13;21.73;;;13.60;99.90;;;;;;5077325;28;20036;-85
2023/09/01 05:03:37;;;;;;;47.78;23.13;;;13.60;99.90;;;;;;5077406;28;20052;-84
2023/09/01 05:06:05;;;;;;;36.60;19.90;;;13.60;99.90;;;;;;5077549;28;20032;-84
2023/09/01 05:08:31;;;;;;;36.88;19.98;;;13.60;99.90;;;;;;5077504;28;20053;-85
2023/09/01 05:10:56;;;;;;;41.65;23.13;;;13.60;99.90;;;;;;5077185;28;20111;-85
2023/09/01 05:13:22;;;;;;;52.70;27.08;;;13.60;99.90;;;;;;5076512;28;20039;-84
2023/09/01 05:15:49;;;;;;;58.22;28.13;;;13.60;99.90;;;;;;5077054;28;20063;-86
2023/09/01 05:18:15;;;;;;;63.22;30.52;;;13.70;99.90;;;;;;5077105;28;20051;-86
2023/09/01 05:20:41;;;;;;;58.65;32.33;;;13.60;99.90;;;;;;5077731;28;20031;-85
2023/09/01 05:23:06;;;;;;;57.53;29.50;;;13.60;99.90;;;;;;5076897;28;20036;-86
2023/09/01 05:25:32;;;;;;;62.03;32.85;;;13.70;99.90;;;;;;5076831;28;20471;-86
2023/09/01 05:27:58;;;;;;;64.88;36.92;;;13.70;99.90;;;;;;5076849;28;20868;-84
2023/09/01 05:30:23;;;;;;;72.88;37.03;;;13.70;99.90;;;;;;5076515;28;20036;-84
2023/09/01 05:32:50;;;;;;;73.35;37.72;;;13.70;99.90;;;;;;5076447;28;20024;-85
2023/09/01 05:35:16;;;;;;;69.25;36.28;;;13.70;99.90;;;;;;5077343;28;20036;-85
2023/09/01 05:37:41;;;;;;;73.18;37.65;;;13.80;99.90;;;;;;5076723;28;20032;-86
2023/09/01 05:40:08;;;;;;;74.88;39.28;;;13.80;99.90;;;;;;5077070;28;20039;-84
2023/09/01 05:42:34;;;;;;;68.40;36.35;;;13.80;99.90;;;;;;5076207;28;20481;-85
2023/09/01 05:45:00;;;;;;;64.25;34.40;;;13.80;99.90;;;;;;5076460;28;20052;-85
2023/09/01 05:47:27;;;;;;;58.92;32.35;;;13.80;99.90;;;;;;5075421;28;20479;-86
2023/09/01 05:49:53;;;;;;;49.05;29.40;;;13.90;99.90;;;;;;5076314;28;20111;-85
2023/09/01 05:52:19;;;;;;;45.53;23.75;;;13.90;99.90;;;;;;5076358;28;20024;-86
2023/09/01 05:54:44;;;;;;;41.60;23.23;;;13.90;99.90;;;;;;5076595;28;20028;-85
2023/09/01 05:57:10;;;;;;;44.33;22.30;;;13.90;99.90;;;;;;5076574;28;20038;-86
2023/09/01 05:59:36;;;;;;;39.63;21.15;;;13.90;99.90;;;;;;5076868;28;20059;-86
2023/09/01 06:02:02;;;;;;;36.38;18.13;;;13.90;99.90;;;;;;5076101;28;20050;-87
2023/09/01 06:04:27;;;;;;;36.92;18.13;;;13.80;99.90;;;;;;5076108;28;20031;-85
2023/09/01 06:06:53;;;;;;;30.55;16.48;;;13.80;99.90;;;;;;5076366;28;20031;-85
2023/09/01 06:09:19;;;;;;;35.63;17.15;;;13.80;99.90;;;;;;5075568;28;20120;-87
2023/09/01 06:11:45;;;;;;;34.63;17.00;;;13.80;99.90;;;;;;5072064;28;20522;-87
2023/09/01 06:14:11;;;;;;;41.08;20.10;;;13.80;99.90;;;;;;5076309;28;20114;-88
2023/09/01 06:16:37;;;;;;;36.13;20.45;;;13.80;99.90;;;;;;5076843;28;20633;-88
2023/09/01 06:19:03;;;;;;;42.42;22.25;;;13.80;99.90;;;;;;5076696;28;20051;-89
2023/09/01 06:21:30;;;;;;;44.38;25.05;;;13.90;99.90;;;;;;5076538;28;20060;-88
2023/09/01 06:23:56;;;;;;;48.97;27.05;;;13.80;99.90;;;;;;5076399;28;20032;-88
2023/09/01 06:26:22;;;;;;;43.83;25.15;;;13.80;99.90;;;;;;5076204;28;20040;-88
2023/09/01 06:28:48;;;;;;;50.40;28.33;;;13.80;99.90;;;;;;5076455;28;20024;-89
2023/09/01 06:31:16;;;;;;;49.35;29.02;;;13.80;99.90;;;;;;5076460;28;20024;-89
2023/09/01 06:33:43;;;;;;;49.50;27.10;;;13.80;99.90;;;;;;5076740;28;20111;-87
2023/09/01 06:36:17;;;;;;;60.58;28.40;;;13.80;99.90;;;;;;5075899;28;20483;-87
2023/09/01 06:38:43;;;;;;;46.42;29.20;;;13.90;99.90;;;;;;5075386;28;20117;-86
2023/09/01 06:41:09;;;;;;;54.53;32.17;;;13.90;99.90;;;;;;5075768;28;20569;-88
2023/09/01 06:43:36;;;;;;;58.08;31.52;;;13.90;99.90;;;;;;5076082;28;20418;-89
2023/09/01 06:46:02;;;;;;;64.82;33.90;;;13.90;99.90;;;;;;5076422;28;20135;-89
2023/09/01 06:48:29;;;;;;;66.55;35.95;;;13.90;99.90;;;;;;5076779;28;20031;-89
2023/09/01 06:50:55;;;;;;;71.40;38.22;;;14.00;99.90;;;;;;5076721;28;20493;-89
2023/09/01 06:53:21;;;;;;;74.30;40.83;;;14.00;99.90;;;;;;5075977;28;20040;-89
2023/09/01 06:55:47;;;;;;;69.40;39.83;;;14.00;99.90;;;;;;5076316;28;20008;-90
2023/09/01 06:58:13;;;;;;;71.65;40.42;;;14.10;99.90;;;;;;5076329;28;20036;-89
2023/09/01 07:00:39;;;;;;;75.82;40.28;;;14.20;99.90;;;;;;5076026;28;20039;-89
2023/09/01 07:03:05;;;;;;;50.25;29.92;;;14.30;99.90;;;;;;5075821;28;20550;-88
2023/09/01 07:05:31;;;;;;;46.90;26.85;;;14.30;99.90;;;;;;5076592;28;20032;-89
2023/09/01 07:07:57;;;;;;;36.20;23.10;;;14.40;99.90;;;;;;5076724;28;20039;-90
2023/09/01 07:10:23;;;;;;;35.75;22.48;;;14.40;99.90;;;;;;5076836;28;20467;-89
2023/09/01 07:12:48;;;;;;;33.42;21.58;;;14.40;99.90;;;;;;5076132;28;20082;-89
2023/09/01 07:15:14;;;;;;;40.58;21.88;;;14.50;99.90;;;;;;5076481;28;20479;-89
2023/09/01 07:17:40;;;;;;;34.78;20.38;;;14.50;99.90;;;;;;5075978;28;20024;-89
2023/09/01 07:20:06;;;;;;;33.17;21.00;;;14.50;99.90;;;;;;5076018;28;20032;-89
2023/09/01 07:22:32;;;;;;;45.47;22.20;;;14.50;99.90;;;;;;5076069;28;20028;-89
2023/09/01 07:24:59;;;;;;;53.97;24.33;;;14.50;99.90;;;;;;5076141;28;20035;-89
2023/09/01 07:27:25;;;;;;;39.72;23.90;;;14.50;99.90;;;;;;5076729;28;20062;-89
2023/09/01 07:29:50;;;;;;;42.15;25.15;;;14.50;99.90;;;;;;5076854;28;20024;-89
2023/09/01 07:32:17;;;;;;;40.83;24.63;;;14.50;99.90;;;;;;5059138;28;20115;-86
2023/09/01 07:34:43;;;;;;;48.55;27.63;;;14.50;99.90;;;;;;5059337;28;20059;-89
2023/09/01 07:37:09;;;;;;;50.60;26.83;;;14.50;99.90;;;;;;5076120;28;20032;-89
2023/09/01 07:39:35;;;;;;;45.13;26.88;;;14.60;99.90;;;;;;5076335;28;20024;-89
2023/09/01 07:42:04;;;;;;;53.03;27.98;;;14.60;99.90;;;;;;5075487;28;20028;-89
2023/09/01 07:44:30;;;;;;;52.15;30.42;;;14.70;99.90;;;;;;5074976;28;20032;-88
2023/09/01 07:46:56;;;;;;;69.03;30.50;;;14.60;99.90;;;;;;5075681;28;20055;-88
2023/09/01 07:49:22;;;;;;;63.85;32.85;;;14.70;99.90;;;;;;5076035;28;20042;-88
2023/09/01 07:51:48;;;;;;;67.00;32.55;;;14.70;99.90;;;;;;5079357;28;20344;-89
2023/09/01 07:54:14;;;;;;;89.75;33.25;;;14.70;99.90;;;;;;5078700;28;20467;-88
2023/09/01 07:56:40;;;;;;;54.83;30.63;;;14.80;99.90;;;;;;5079057;28;20032;-87
2023/09/01 07:59:06;;;;;;;48.63;29.02;;;14.70;99.90;;;;;;5078220;28;20114;-87
2023/09/01 08:01:32;;;;;;;52.05;29.40;;;14.70;99.90;;;;;;5078397;28;20768;-88
2023/09/01 08:04:00;;;;;;;47.10;30.05;;;14.90;99.90;;;;;;5096730;28;20094;-87
2023/09/01 08:06:29;;;;;;;43.80;25.40;;;15.00;99.90;;;;;;5078286;28;20028;-88
2023/09/01 08:09:13;;;;;;;39.63;26.85;;;15.00;99.90;;;;;;5077810;28;20070;-87
2023/09/01 08:11:39;;;;;;;40.30;26.95;;;15.10;99.90;;;;;;5077572;28;20074;-87
2023/09/01 08:14:04;;;;;;;40.22;26.83;;;15.40;99.90;;;;;;5077576;28;20524;-88
2023/09/01 08:16:30;;;;;;;33.60;24.00;;;15.60;99.90;;;;;;5077944;28;20474;-88
2023/09/01 08:18:59;;;;;;;28.02;20.85;;;15.80;99.90;;;;;;5078091;28;20032;-87
2023/09/01 08:21:25;;;;;;;22.30;18.98;;;16.00;99.90;;;;;;5077337;28;20028;-87
2023/09/01 08:23:51;;;;;;;21.02;17.55;;;16.10;99.90;;;;;;5078167;28;20074;-88
2023/09/01 08:26:16;;;;;;;20.13;15.57;;;16.10;99.90;;;;;;5077007;28;20034;-88
2023/09/01 08:28:42;;;;;;;17.48;15.20;;;16.10;99.90;;;;;;5077644;28;20032;-87
2023/09/01 08:31:20;;;;;;;21.60;14.65;;;16.10;99.90;;;;;;5077570;28;20047;-88
2023/09/01 08:33:46;;;;;;;18.90;13.43;;;16.00;99.90;;;;;;5077634;28;20416;-88
2023/09/01 08:36:11;;;;;;;23.55;13.75;;;15.90;99.90;;;;;;5077197;28;20135;-88
2023/09/01 08:38:37;;;;;;;18.02;13.77;;;15.90;99.90;;;;;;5076902;28;20039;-88
2023/09/01 08:41:19;;;;;;;22.20;14.68;;;15.90;99.90;;;;;;5077398;28;20070;-87
2023/09/01 08:43:48;;;;;;;16.77;14.15;;;16.00;99.90;;;;;;5076493;28;20094;-87
2023/09/01 08:46:18;;;;;;;18.25;14.63;;;16.00;99.90;;;;;;5061165;28;20032;-87
2023/09/01 08:48:47;;;;;;;16.70;14.40;;;15.90;99.90;;;;;;5061195;28;20546;-87
2023/09/01 08:51:14;;;;;;;18.55;15.57;;;15.90;99.90;;;;;;5077637;28;20041;-88
2023/09/01 08:53:42;;;;;;;19.20;15.52;;;16.10;99.90;;;;;;5077372;28;20073;-86
2023/09/01 08:56:07;;;;;;;16.75;14.32;;;16.20;99.90;;;;;;5078003;28;20070;-87
2023/09/01 08:58:33;;;;;;;17.58;15.00;;;16.30;99.90;;;;;;5077390;28;20471;-88
2023/09/01 09:00:59;;;;;;;16.35;14.27;;;16.30;99.90;;;;;;5076378;28;20040;-88
2023/09/01 09:03:24;;;;;;;16.98;15.13;;;16.30;99.90;;;;;;5077508;28;20536;-87
2023/09/01 09:06:12;;;;;;;18.23;14.48;;;16.30;99.90;;;;;;5077326;28;20028;-88
2023/09/01 09:08:38;;;;;;;18.60;15.15;;;16.30;99.90;;;;;;5077270;28;20032;-87
2023/09/01 09:11:13;;;;;;;16.05;13.27;;;16.20;99.90;;;;;;5094779;28;20432;-85
2023/09/01 09:13:40;;;;;;;15.60;13.68;;;16.30;99.90;;;;;;5077289;28;20036;-87
2023/09/01 09:16:24;;;;;;;15.48;13.18;;;16.30;99.90;;;;;;5077002;28;20032;-87
2023/09/01 09:18:49;;;;;;;13.70;12.30;;;16.30;99.90;;;;;;5077026;28;20032;-87
2023/09/01 09:21:23;;;;;;;15.82;11.63;;;16.40;99.90;;;;;;5077007;28;20340;-87
2023/09/01 09:23:49;;;;;;;12.65;11.38;;;16.50;99.90;;;;;;5076922;28;20032;-87
2023/09/01 09:26:15;;;;;;;12.10;10.93;;;16.50;99.90;;;;;;5076858;28;20031;-87
2023/09/01 09:28:41;;;;;;;11.77;10.63;;;16.60;99.90;;;;;;5076768;28;20066;-87
2023/09/01 09:31:06;;;;;;;16.05;11.45;;;16.40;99.90;;;;;;5076618;28;20020;-87
2023/09/01 09:33:34;;;;;;;14.20;12.23;;;16.40;99.90;;;;;;5076135;28;20052;-88
2023/09/01 09:36:00;;;;;;;16.08;13.35;;;16.40;99.90;;;;;;5059602;28;20063;-87
2023/09/01 09:38:46;;;;;;;14.38;12.32;;;16.30;99.90;;;;;;5076279;28;20029;-88
2023/09/01 09:41:13;;;;;;;14.65;11.43;;;16.40;99.90;;;;;;5077862;28;20044;-87
2023/09/01 09:43:44;;;;;;;14.68;12.23;;;16.50;99.90;;;;;;5059716;28;20074;-87
2023/09/01 09:46:19;;;;;;;21.93;12.67;;;16.50;99.90;;;;;;5059376;28;20483;-87
2023/09/01 09:48:45;;;;;;;14.43;12.93;;;16.40;99.90;;;;;;5076418;28;20795;-87
2023/09/01 09:51:15;;;;;;;20.20;15.85;;;16.40;99.90;;;;;;5076130;28;20051;-88
2023/09/01 09:53:45;;;;;;;31.38;24.50;;;16.40;99.90;;;;;;5059942;28;20114;-87
2023/09/01 09:56:17;;;;;;;17.70;13.70;;;16.40;99.90;;;;;;5075910;28;20028;-87
2023/09/01 09:58:46;;;;;;;20.25;14.10;;;16.30;99.90;;;;;;5076051;28;20039;-87
2023/09/01 10:01:22;;;;;;;18.77;13.65;;;16.30;99.90;;;;;;5075742;28;20042;-87
2023/09/01 10:03:49;;;;;;;15.30;12.40;;;16.40;99.90;;;;;;5076004;28;20036;-87
2023/09/01 10:06:19;;;;;;;13.15;10.30;;;16.50;99.90;;;;;;5076226;28;20118;-88
2023/09/01 10:08:45;;;;;;;12.25;10.10;;;16.50;99.90;;;;;;5061587;28;20453;-87
2023/09/01 10:11:14;;;;;;;13.50;10.00;;;16.40;99.90;;;;;;5075708;28;20028;-88
2023/09/01 10:13:45;;;;;;;10.68;8.43;;;16.40;99.90;;;;;;5075496;28;20051;-87
2023/09/01 10:16:13;;;;;;;10.43;8.68;;;16.40;99.90;;;;;;5075316;28;20008;-87
2023/09/01 10:18:44;;;;;;;21.83;9.38;;;16.50;99.90;;;;;;5075815;28;20032;-87
2023/09/01 10:21:11;;;;;;;11.07;8.90;;;16.50;99.90;;;;;;5075798;28;20036;-87
2023/09/01 10:23:37;;;;;;;14.43;9.10;;;16.50;99.90;;;;;;5075188;28;20083;-86
2023/09/01 10:26:18;;;;;;;9.32;7.40;;;16.70;99.90;;;;;;5074558;28;20024;-87
2023/09/01 10:28:57;;;;;;;9.82;7.72;;;16.80;99.90;;;;;;5075176;28;20028;-87
2023/09/01 10:31:23;;;;;;;10.10;6.68;;;17.10;99.90;;;;;;5074812;28;20074;-85
2023/09/01 10:34:27;;;;;;;11.73;6.20;;;17.30;99.90;;;;;;5058207;28;20032;-84
2023/09/01 10:37:30;;;;;;;7.80;6.43;;;17.50;99.90;;;;;;4978030;28;20034;-84
2023/09/01 10:39:57;;;;;;;7.95;5.28;;;17.70;99.90;;;;;;4981219;28;20042;-84
2023/09/01 10:42:48;;;;;;;8.27;5.60;;;17.50;99.90;;;;;;4978314;28;20042;-85
2023/09/01 10:45:22;;;;;;;8.82;5.38;;;17.40;99.90;;;;;;4978474;28;20172;-87
2023/09/01 10:47:52;;;;;;;11.18;5.32;;;17.10;99.90;;;;;;4994528;28;20040;-87
2023/09/01 10:50:18;;;;;;;8.90;4.63;;;17.00;99.90;;;;;;4979719;28;20040;-86
2023/09/01 10:52:46;;;;;;;10.15;5.57;;;16.80;99.90;;;;;;5074984;28;20032;-85
2023/09/01 10:55:12;;;;;;;9.38;5.65;;;16.60;99.90;;;;;;5074179;28;20034;-87
2023/09/01 10:57:45;;;;;;;11.45;6.35;;;16.50;99.90;;;;;;5073814;28;20028;-87
2023/09/01 11:00:25;;;;;;;6.22;5.00;;;16.50;99.90;;;;;;5074096;28;20101;-87
2023/09/01 11:02:50;;;;;;;6.90;5.35;;;16.50;99.90;;;;;;5073917;28;20032;-87
2023/09/01 11:05:36;;;;;;;11.93;7.10;;;16.50;99.90;;;;;;5091618;28;20039;-88
2023/09/01 11:08:15;;;;;;;10.93;6.72;;;16.50;99.90;;;;;;5074810;28;20774;-88
2023/09/01 11:11:07;;;;;;;11.02;7.35;;;16.50;99.90;;;;;;5074006;28;20027;-88
2023/09/01 11:13:33;;;;;;;10.95;6.82;;;16.50;99.90;;;;;;5074552;28;20490;-86
2023/09/01 11:16:07;;;;;;;9.48;6.97;;;16.60;99.90;;;;;;5075854;28;20040;-88
2023/09/01 11:18:33;;;;;;;9.75;6.00;;;16.60;99.90;;;;;;5074917;28;20479;-88
2023/09/01 11:21:00;;;;;;;14.63;7.13;;;16.50;99.90;;;;;;5074918;28;20039;-88
2023/09/01 11:23:29;;;;;;;10.77;7.13;;;16.50;99.90;;;;;;5074867;28;20039;-88
2023/09/01 11:25:56;;;;;;;7.72;6.43;;;16.60;99.90;;;;;;5077893;28;20040;-89
2023/09/01 11:28:22;;;;;;;7.03;5.88;;;16.90;99.90;;;;;;5079207;28;20028;-88
2023/09/01 11:30:52;;;;;;;7.93;5.88;;;17.00;99.90;;;;;;5079141;28;20028;-88
2023/09/01 11:33:20;;;;;;;12.27;6.78;;;17.20;99.90;;;;;;5078800;28;20028;-88
2023/09/01 11:35:46;;;;;;;13.13;5.40;;;17.20;99.90;;;;;;5078793;28;20028;-88
2023/09/01 11:38:21;;;;;;;4.05;3.65;;;17.20;99.90;;;;;;5078658;28;20838;-88
2023/09/01 11:41:05;;;;;;;6.45;3.95;;;17.20;99.90;;;;;;5078738;28;20042;-87
2023/09/01 11:43:43;;;;;;;6.60;3.97;;;17.20;99.90;;;;;;5061188;28;20032;-88
2023/09/01 11:46:10;;;;;;;5.25;3.75;;;17.10;99.90;;;;;;5078375;28;20043;-87
2023/09/01 11:48:36;;;;;;;5.35;4.10;;;17.00;99.90;;;;;;5078465;28;20046;-88
2023/09/01 11:51:02;;;;;;;5.78;3.72;;;17.10;99.90;;;;;;5077837;28;20043;-87
2023/09/01 11:53:37;;;;;;;4.60;3.25;;;17.20;99.90;;;;;;5077327;28;20023;-87
2023/09/01 11:56:22;;;;;;;4.90;3.47;;;17.40;99.90;;;;;;5077975;28;20036;-88
2023/09/01 11:58:49;;;;;;;12.85;4.22;;;17.50;99.90;;;;;;5078149;28;20035;-86
2023/09/01 12:01:17;;;;;;;4.90;3.33;;;17.70;99.90;;;;;;5077854;28;20039;-88
2023/09/01 12:03:54;;;;;;;4.72;2.78;;;17.80;99.90;;;;;;5078360;28;20051;-87
2023/09/01 12:06:24;;;;;;;4.53;3.40;;;18.10;99.90;;;;;;5061757;28;20131;-88
2023/09/01 12:08:53;;;;;;;6.43;3.50;;;17.90;99.90;;;;;;5077732;28;20503;-87
2023/09/01 12:11:19;;;;;;;6.20;3.03;;;17.90;99.90;;;;;;5095853;28;20020;-88
2023/09/01 12:13:46;;;;;;;7.70;3.33;;;17.90;99.90;;;;;;5077754;28;20606;-88
2023/09/01 12:16:23;;;;;;;6.07;3.65;;;17.80;99.90;;;;;;5077681;28;20042;-87
2023/09/01 12:18:51;;;;;;;8.85;4.35;;;17.70;99.90;;;;;;5078346;28;20028;-87
2023/09/01 12:21:16;;;;;;;8.10;4.13;;;17.60;99.90;;;;;;5076380;28;20024;-87
2023/09/01 12:23:44;;;;;;;10.27;3.63;;;17.50;99.90;;;;;;5076293;28;20101;-88
2023/09/01 12:26:11;;;;;;;11.02;3.72;;;17.60;99.90;;;;;;5077717;28;20036;-87
2023/09/01 12:28:38;;;;;;;5.05;3.67;;;17.60;99.90;;;;;;5077112;28;20158;-87
2023/09/01 12:31:06;;;;;;;6.75;4.10;;;17.60;99.90;;;;;;5077668;28;20028;-87
2023/09/01 12:33:32;;;;;;;6.82;4.38;;;17.40;99.90;;;;;;5077251;28;20024;-87
2023/09/01 12:35:59;;;;;;;7.60;4.60;;;17.30;99.90;;;;;;5077152;28;20036;-87
2023/09/01 12:38:25;;;;;;;7.60;4.60;;;17.10;99.90;;;;;;5077121;28;20090;-85
2023/09/01 12:40:51;;;;;;;6.65;4.40;;;17.10;99.90;;;;;;5076555;28;20402;-87